sensor_id;sensor_type;location;lat;lon;timestamp;temperature;humidity
2663;DHT22;49701;48.072;7.800;2023-10-19T00:00:33;11.60;99.90
2663;DHT22;49701;48.072;7.800;2023-10-19T00:03:02;11.60;99.90
2663;DHT22;49701;48.072;7.800;2023-10-19T00:05:31;11.60;99.90
2663;DHT22;49701;48.072;7.800;2023-10-19T00:07:58;11.60;99.90
2663;DHT22;49701;48.072;7.800;2023-10-19T00:10:26;11.60;99.90
2663;DHT22;49701;48.072;7.800;2023-10-19T00:12:55;11.60;99.90
2663;DHT22;49701;48.072;7.800;2023-10-19T00:15:26;11.60;99.90
2663;DHT22;49701;48.072;7.800;2023-10-19T00:17:56;11.60;99.90
2663;DHT22;49701;48.072;7.800;2023-10-19T00:20:24;11.60;99.90
2663;DHT22;49701;48.072;7.800;2023-10-19T00:23:11;11.60;99.90
2663;DHT22;49701;48.072;7.800;2023-10-19T00:25:39;11.70;99.90
2663;DHT22;49701;48.072;7.800;2023-10-19T00:28:10;11.70;99.90
2663;DHT22;49701;48.072;7.800;2023-10-19T00:30:38;11.70;99.90
2663;DHT22;49701;48.072;7.800;2023-10-19T00:33:04;11.70;99.90
2663;DHT22;49701;48.072;7.800;2023-10-19T00:35:41;11.70;99.90
2663;DHT22;49701;48.072;7.800;2023-10-19T00:38:25;11.70;99.90
2663;DHT22;49701;48.072;7.800;2023-10-19T00:41:04;11.70;99.90
2663;DHT22;49701;48.072;7.800;2023-10-19T00:43:37;11.80;99.90
2663;DHT22;49701;48.072;7.800;2023-10-19T00:46:12;11.80;99.90
2663;DHT22;49701;48.072;7.800;2023-10-19T00:48:45;11.80;99.90
2663;DHT22;49701;48.072;7.800;2023-10-19T00:51:17;11.80;99.90
2663;DHT22;49701;48.072;7.800;2023-10-19T00:54:06;11.80;99.90
2663;DHT22;49701;48.072;7.800;2023-10-19T00:56:37;11.80;99.90
2663;DHT22;49701;48.072;7.800;2023-10-19T00:59:03;11.80;99.90
2663;DHT22;49701;48.072;7.800;2023-10-19T01:01:41;11.70;99.90
2663;DHT22;49701;48.072;7.800;2023-10-19T01:04:13;11.80;99.90
2663;DHT22;49701;48.072;7.800;2023-10-19T01:06:41;11.70;99.90
2663;DHT22;49701;48.072;7.800;2023-10-19T01:09:23;11.70;99.90
2663;DHT22;49701;48.072;7.800;2023-10-19T01:11:53;11.70;99.90
2663;DHT22;49701;48.072;7.800;2023-10-19T01:14:23;11.70;99.90
2663;DHT22;49701;48.072;7.800;2023-10-19T01:16:53;11.70;99.90
2663;DHT22;49701;48.072;7.800;2023-10-19T01:19:25;11.70;99.90
2663;DHT22;49701;48.072;7.800;2023-10-19T01:21:53;11.70;99.90
2663;DHT22;49701;48.072;7.800;2023-10-19T01:24:27;11.70;99.90
2663;DHT22;49701;48.072;7.800;2023-10-19T01:27:13;11.70;99.90
2663;DHT22;49701;48.072;7.800;2023-10-19T01:29:39;11.70;99.90
2663;DHT22;49701;48.072;7.800;2023-10-19T01:32:07;11.70;99.90
2663;DHT22;49701;48.072;7.800;2023-10-19T01:34:34;11.70;99.90
2663;DHT22;49701;48.072;7.800;2023-10-19T01:37:01;11.70;99.90
2663;DHT22;49701;48.072;7.800;2023-10-19T01:39:33;11.70;99.90
2663;DHT22;49701;48.072;7.800;2023-10-19T01:42:02;11.70;99.90
2663;DHT22;49701;48.072;7.800;2023-10-19T01:44:30;11.70;99.90
2663;DHT22;49701;48.072;7.800;2023-10-19T01:46:57;11.80;99.90
2663;DHT22;49701;48.072;7.800;2023-10-19T01:49:22;11.70;99.90
2663;DHT22;49701;48.072;7.800;2023-10-19T01:51:54;11.70;99.90
2663;DHT22;49701;48.072;7.800;2023-10-19T01:54:21;11.70;99.90
2663;DHT22;49701;48.072;7.800;2023-10-19T01:56:55;11.70;99.90
2663;DHT22;49701;48.072;7.800;2023-10-19T01:59:26;11.70;99.90
2663;DHT22;49701;48.072;7.800;2023-10-19T02:01:54;11.70;99.90
2663;DHT22;49701;48.072;7.800;2023-10-19T02:04:20;11.70;99.90
2663;DHT22;49701;48.072;7.800;2023-10-19T02:06:47;11.70;99.90
2663;DHT22;49701;48.072;7.800;2023-10-19T02:09:15;11.70;99.90
2663;DHT22;49701;48.072;7.800;2023-10-19T02:11:50;11.70;99.90
2663;DHT22;49701;48.072;7.800;2023-10-19T02:14:18;11.70;99.90
2663;DHT22;49701;48.072;7.800;2023-10-19T02:16:50;11.70;99.90
2663;DHT22;49701;48.072;7.800;2023-10-19T02:19:19;11.70;99.90
2663;DHT22;49701;48.072;7.800;2023-10-19T02:21:55;11.70;99.90
2663;DHT22;49701;48.072;7.800;2023-10-19T02:24:21;11.70;99.90
2663;DHT22;49701;48.072;7.800;2023-10-19T02:26:50;11.70;99.90
2663;DHT22;49701;48.072;7.800;2023-10-19T02:29:20;11.60;99.90
2663;DHT22;49701;48.072;7.800;2023-10-19T02:31:47;11.60;99.90
2663;DHT22;49701;48.072;7.800;2023-10-19T02:34:14;11.70;99.90
2663;DHT22;49701;48.072;7.800;2023-10-19T02:36:44;11.70;99.90
2663;DHT22;49701;48.072;7.800;2023-10-19T02:39:12;11.70;99.90
2663;DHT22;49701;48.072;7.800;2023-10-19T02:41:44;11.80;99.90
2663;DHT22;49701;48.072;7.800;2023-10-19T02:44:12;11.80;99.90
2663;DHT22;49701;48.072;7.800;2023-10-19T02:46:46;11.90;99.90
2663;DHT22;49701;48.072;7.800;2023-10-19T02:49:13;12.00;99.90
2663;DHT22;49701;48.072;7.800;2023-10-19T02:51:44;12.00;99.90
2663;DHT22;49701;48.072;7.800;2023-10-19T02:54:11;12.10;99.90
2663;DHT22;49701;48.072;7.800;2023-10-19T02:56:53;12.10;99.90
2663;DHT22;49701;48.072;7.800;2023-10-19T02:59:21;12.20;99.90
2663;DHT22;49701;48.072;7.800;2023-10-19T03:01:54;12.20;99.90
2663;DHT22;49701;48.072;7.800;2023-10-19T03:04:27;12.30;99.90
2663;DHT22;49701;48.072;7.800;2023-10-19T03:06:56;12.30;99.90
2663;DHT22;49701;48.072;7.800;2023-10-19T03:09:22;12.40;99.90
2663;DHT22;49701;48.072;7.800;2023-10-19T03:11:54;12.40;99.90
2663;DHT22;49701;48.072;7.800;2023-10-19T03:14:22;12.50;99.90
2663;DHT22;49701;48.072;7.800;2023-10-19T03:16:52;12.60;99.90
2663;DHT22;49701;48.072;7.800;2023-10-19T03:19:18;12.60;99.90
2663;DHT22;49701;48.072;7.800;2023-10-19T03:21:43;12.70;99.90
2663;DHT22;49701;48.072;7.800;2023-10-19T03:24:10;12.70;99.90
2663;DHT22;49701;48.072;7.800;2023-10-19T03:26:52;12.80;99.90
2663;DHT22;49701;48.072;7.800;2023-10-19T03:29:20;12.70;99.90
2663;DHT22;49701;48.072;7.800;2023-10-19T03:31:57;12.80;99.90
2663;DHT22;49701;48.072;7.800;2023-10-19T03:34:24;12.80;99.90
2663;DHT22;49701;48.072;7.800;2023-10-19T03:36:50;12.90;99.90
2663;DHT22;49701;48.072;7.800;2023-10-19T03:39:20;13.00;99.90
2663;DHT22;49701;48.072;7.800;2023-10-19T03:41:46;13.00;99.90
2663;DHT22;49701;48.072;7.800;2023-10-19T03:44:16;13.10;99.90
2663;DHT22;49701;48.072;7.800;2023-10-19T03:46:52;13.20;99.90
2663;DHT22;49701;48.072;7.800;2023-10-19T03:49:22;13.30;99.90
2663;DHT22;49701;48.072;7.800;2023-10-19T03:51:48;13.50;99.90
2663;DHT22;49701;48.072;7.800;2023-10-19T03:54:32;13.50;99.90
2663;DHT22;49701;48.072;7.800;2023-10-19T03:56:58;13.60;99.90
2663;DHT22;49701;48.072;7.800;2023-10-19T03:59:29;13.60;99.90
2663;DHT22;49701;48.072;7.800;2023-10-19T04:01:58;13.60;99.90
2663;DHT22;49701;48.072;7.800;2023-10-19T04:04:26;13.70;99.90
2663;DHT22;49701;48.072;7.800;2023-10-19T04:06:55;13.70;99.90
2663;DHT22;49701;48.072;7.800;2023-10-19T04:09:24;13.70;99.90
2663;DHT22;49701;48.072;7.800;2023-10-19T04:11:55;13.70;99.90
2663;DHT22;49701;48.072;7.800;2023-10-19T04:14:21;13.70;99.90
2663;DHT22;49701;48.072;7.800;2023-10-19T04:16:47;13.60;99.90
2663;DHT22;49701;48.072;7.800;2023-10-19T04:19:14;13.60;99.90
2663;DHT22;49701;48.072;7.800;2023-10-19T04:21:41;13.60;99.90
2663;DHT22;49701;48.072;7.800;2023-10-19T04:24:12;13.60;99.90
2663;DHT22;49701;48.072;7.800;2023-10-19T04:26:38;13.60;99.90
2663;DHT22;49701;48.072;7.800;2023-10-19T04:29:03;13.60;99.90
2663;DHT22;49701;48.072;7.800;2023-10-19T04:31:43;13.60;99.90
2663;DHT22;49701;48.072;7.800;2023-10-19T04:34:18;13.60;99.90
2663;DHT22;49701;48.072;7.800;2023-10-19T04:36:47;13.60;99.90
2663;DHT22;49701;48.072;7.800;2023-10-19T04:39:13;13.60;99.90
2663;DHT22;49701;48.072;7.800;2023-10-19T04:41:42;13.60;99.90
2663;DHT22;49701;48.072;7.800;2023-10-19T04:44:08;13.60;99.90
2663;DHT22;49701;48.072;7.800;2023-10-19T04:46:34;13.60;99.90
2663;DHT22;49701;48.072;7.800;2023-10-19T04:49:00;13.60;99.90
2663;DHT22;49701;48.072;7.800;2023-10-19T04:51:27;13.60;99.90
2663;DHT22;49701;48.072;7.800;2023-10-19T04:53:54;13.60;99.90
2663;DHT22;49701;48.072;7.800;2023-10-19T04:56:21;13.60;99.90
2663;DHT22;49701;48.072;7.800;2023-10-19T04:58:47;13.50;99.90
2663;DHT22;49701;48.072;7.800;2023-10-19T05:01:13;13.50;99.90
2663;DHT22;49701;48.072;7.800;2023-10-19T05:03:41;13.50;99.90
2663;DHT22;49701;48.072;7.800;2023-10-19T05:06:06;13.40;99.90
2663;DHT22;49701;48.072;7.800;2023-10-19T05:08:32;13.40;99.90
2663;DHT22;49701;48.072;7.800;2023-10-19T05:10:58;13.30;99.90
2663;DHT22;49701;48.072;7.800;2023-10-19T05:13:27;13.30;99.90
2663;DHT22;49701;48.072;7.800;2023-10-19T05:15:56;13.30;99.90
2663;DHT22;49701;48.072;7.800;2023-10-19T05:18:24;13.20;99.90
2663;DHT22;49701;48.072;7.800;2023-10-19T05:20:51;13.20;99.90
2663;DHT22;49701;48.072;7.800;2023-10-19T05:23:22;13.20;99.90
2663;DHT22;49701;48.072;7.800;2023-10-19T05:25:49;13.20;99.90
2663;DHT22;49701;48.072;7.800;2023-10-19T05:28:15;13.30;99.90
2663;DHT22;49701;48.072;7.800;2023-10-19T05:30:41;13.30;99.90
2663;DHT22;49701;48.072;7.800;2023-10-19T05:33:07;13.40;99.90
2663;DHT22;49701;48.072;7.800;2023-10-19T05:35:32;13.40;99.90
2663;DHT22;49701;48.072;7.800;2023-10-19T05:38:03;13.40;99.90
2663;DHT22;49701;48.072;7.800;2023-10-19T05:40:29;13.30;99.90
2663;DHT22;49701;48.072;7.800;2023-10-19T05:42:56;13.30;99.90
2663;DHT22;49701;48.072;7.800;2023-10-19T05:45:23;13.20;99.90
2663;DHT22;49701;48.072;7.800;2023-10-19T05:47:49;13.20;99.90
2663;DHT22;49701;48.072;7.800;2023-10-19T05:50:14;13.30;99.90
2663;DHT22;49701;48.072;7.800;2023-10-19T05:52:41;13.20;99.90
2663;DHT22;49701;48.072;7.800;2023-10-19T05:55:08;13.20;99.90
2663;DHT22;49701;48.072;7.800;2023-10-19T05:57:34;13.20;99.90
2663;DHT22;49701;48.072;7.800;2023-10-19T06:00:01;13.20;99.90
2663;DHT22;49701;48.072;7.800;2023-10-19T06:02:27;13.20;99.90
2663;DHT22;49701;48.072;7.800;2023-10-19T06:04:52;13.10;99.90
2663;DHT22;49701;48.072;7.800;2023-10-19T06:07:18;13.10;99.90
2663;DHT22;49701;48.072;7.800;2023-10-19T06:09:43;13.10;99.90
2663;DHT22;49701;48.072;7.800;2023-10-19T06:12:09;13.10;99.90
2663;DHT22;49701;48.072;7.800;2023-10-19T06:14:35;13.10;99.90
2663;DHT22;49701;48.072;7.800;2023-10-19T06:17:00;13.10;99.90
2663;DHT22;49701;48.072;7.800;2023-10-19T06:19:27;13.10;99.90
2663;DHT22;49701;48.072;7.800;2023-10-19T06:21:52;13.10;99.90
2663;DHT22;49701;48.072;7.800;2023-10-19T06:24:18;13.10;99.90
2663;DHT22;49701;48.072;7.800;2023-10-19T06:26:44;13.10;99.90
2663;DHT22;49701;48.072;7.800;2023-10-19T06:29:10;13.10;99.90
2663;DHT22;49701;48.072;7.800;2023-10-19T06:31:36;13.20;99.90
2663;DHT22;49701;48.072;7.800;2023-10-19T06:34:01;13.30;99.90
2663;DHT22;49701;48.072;7.800;2023-10-19T06:36:28;13.30;99.90
2663;DHT22;49701;48.072;7.800;2023-10-19T06:38:57;13.40;99.90
2663;DHT22;49701;48.072;7.800;2023-10-19T06:41:23;13.40;99.90
2663;DHT22;49701;48.072;7.800;2023-10-19T06:43:49;13.40;99.90
2663;DHT22;49701;48.072;7.800;2023-10-19T06:46:15;13.40;99.90
2663;DHT22;49701;48.072;7.800;2023-10-19T06:48:41;13.30;99.90
2663;DHT22;49701;48.072;7.800;2023-10-19T06:51:07;13.30;99.90
2663;DHT22;49701;48.072;7.800;2023-10-19T06:53:33;13.40;99.90
2663;DHT22;49701;48.072;7.800;2023-10-19T06:56:00;13.50;99.90
2663;DHT22;49701;48.072;7.800;2023-10-19T06:58:26;13.60;99.90
2663;DHT22;49701;48.072;7.800;2023-10-19T07:00:52;13.60;99.90
2663;DHT22;49701;48.072;7.800;2023-10-19T07:03:30;13.70;99.90
2663;DHT22;49701;48.072;7.800;2023-10-19T07:05:56;13.70;99.90
2663;DHT22;49701;48.072;7.800;2023-10-19T07:08:23;13.70;99.90
2663;DHT22;49701;48.072;7.800;2023-10-19T07:10:49;13.70;99.90
2663;DHT22;49701;48.072;7.800;2023-10-19T07:13:15;13.80;99.90
2663;DHT22;49701;48.072;7.800;2023-10-19T07:15:41;13.80;99.90
2663;DHT22;49701;48.072;7.800;2023-10-19T07:18:06;13.90;99.90
2663;DHT22;49701;48.072;7.800;2023-10-19T07:20:33;13.90;99.90
2663;DHT22;49701;48.072;7.800;2023-10-19T07:23:08;14.00;99.90
2663;DHT22;49701;48.072;7.800;2023-10-19T07:25:47;14.00;99.90
2663;DHT22;49701;48.072;7.800;2023-10-19T07:28:14;14.00;99.90
2663;DHT22;49701;48.072;7.800;2023-10-19T07:30:40;14.10;99.90
2663;DHT22;49701;48.072;7.800;2023-10-19T07:33:07;14.10;99.90
2663;DHT22;49701;48.072;7.800;2023-10-19T07:35:36;14.20;99.90
2663;DHT22;49701;48.072;7.800;2023-10-19T07:38:04;14.20;99.90
2663;DHT22;49701;48.072;7.800;2023-10-19T07:40:30;14.30;99.90
2663;DHT22;49701;48.072;7.800;2023-10-19T07:42:56;14.40;99.90
2663;DHT22;49701;48.072;7.800;2023-10-19T07:45:22;14.50;99.90
2663;DHT22;49701;48.072;7.800;2023-10-19T07:47:47;14.60;99.90
2663;DHT22;49701;48.072;7.800;2023-10-19T07:50:14;14.70;99.90
2663;DHT22;49701;48.072;7.800;2023-10-19T07:52:46;14.80;99.90
2663;DHT22;49701;48.072;7.800;2023-10-19T07:55:18;14.90;99.90
2663;DHT22;49701;48.072;7.800;2023-10-19T07:57:44;14.90;99.90
2663;DHT22;49701;48.072;7.800;2023-10-19T08:00:10;14.90;99.90
2663;DHT22;49701;48.072;7.800;2023-10-19T08:02:36;14.90;99.90
2663;DHT22;49701;48.072;7.800;2023-10-19T08:05:03;14.90;99.90
2663;DHT22;49701;48.072;7.800;2023-10-19T08:07:29;14.90;99.90
2663;DHT22;49701;48.072;7.800;2023-10-19T08:09:55;14.90;99.90
2663;DHT22;49701;48.072;7.800;2023-10-19T08:12:24;14.90;99.90
2663;DHT22;49701;48.072;7.800;2023-10-19T08:14:52;14.80;99.90
2663;DHT22;49701;48.072;7.800;2023-10-19T08:17:18;14.80;99.90
2663;DHT22;49701;48.072;7.800;2023-10-19T08:19:43;14.80;99.90
2663;DHT22;49701;48.072;7.800;2023-10-19T08:22:09;14.70;99.90
2663;DHT22;49701;48.072;7.800;2023-10-19T08:24:35;14.70;99.90
2663;DHT22;49701;48.072;7.800;2023-10-19T08:27:01;14.70;99.90
2663;DHT22;49701;48.072;7.800;2023-10-19T08:29:31;14.70;99.90
2663;DHT22;49701;48.072;7.800;2023-10-19T08:31:57;14.60;99.90
2663;DHT22;49701;48.072;7.800;2023-10-19T08:34:23;14.60;99.90
2663;DHT22;49701;48.072;7.800;2023-10-19T08:36:50;14.60;99.90
2663;DHT22;49701;48.072;7.800;2023-10-19T08:39:17;14.60;99.90
2663;DHT22;49701;48.072;7.800;2023-10-19T08:41:43;14.60;99.90
2663;DHT22;49701;48.072;7.800;2023-10-19T08:44:09;14.50;99.90
2663;DHT22;49701;48.072;7.800;2023-10-19T08:46:40;14.50;99.90
2663;DHT22;49701;48.072;7.800;2023-10-19T08:49:11;14.40;99.90
2663;DHT22;49701;48.072;7.800;2023-10-19T08:51:38;14.40;99.90
2663;DHT22;49701;48.072;7.800;2023-10-19T08:54:07;14.40;99.90
2663;DHT22;49701;48.072;7.800;2023-10-19T08:56:36;14.40;99.90
2663;DHT22;49701;48.072;7.800;2023-10-19T08:59:02;14.40;99.90
2663;DHT22;49701;48.072;7.800;2023-10-19T09:01:28;14.50;99.90
2663;DHT22;49701;48.072;7.800;2023-10-19T09:04:00;14.50;99.90
2663;DHT22;49701;48.072;7.800;2023-10-19T09:06:26;14.50;99.90
2663;DHT22;49701;48.072;7.800;2023-10-19T09:08:54;14.60;99.90
2663;DHT22;49701;48.072;7.800;2023-10-19T09:11:20;14.60;99.90
2663;DHT22;49701;48.072;7.800;2023-10-19T09:13:47;14.60;99.90
2663;DHT22;49701;48.072;7.800;2023-10-19T09:16:16;14.70;99.90
2663;DHT22;49701;48.072;7.800;2023-10-19T09:18:42;14.70;99.90
2663;DHT22;49701;48.072;7.800;2023-10-19T09:21:08;14.70;99.90
2663;DHT22;49701;48.072;7.800;2023-10-19T09:23:37;14.70;99.90
2663;DHT22;49701;48.072;7.800;2023-10-19T09:26:04;14.70;99.90
2663;DHT22;49701;48.072;7.800;2023-10-19T09:28:31;14.70;99.90
2663;DHT22;49701;48.072;7.800;2023-10-19T09:30:58;14.70;99.90
2663;DHT22;49701;48.072;7.800;2023-10-19T09:33:25;14.70;99.90
2663;DHT22;49701;48.072;7.800;2023-10-19T09:35:51;14.70;99.90
2663;DHT22;49701;48.072;7.800;2023-10-19T09:38:19;14.70;99.90
2663;DHT22;49701;48.072;7.800;2023-10-19T09:40:47;14.70;99.90
2663;DHT22;49701;48.072;7.800;2023-10-19T09:43:15;14.70;99.90
2663;DHT22;49701;48.072;7.800;2023-10-19T09:45:41;14.70;99.90
2663;DHT22;49701;48.072;7.800;2023-10-19T09:48:12;14.70;99.90
2663;DHT22;49701;48.072;7.800;2023-10-19T09:50:43;14.70;99.90
2663;DHT22;49701;48.072;7.800;2023-10-19T09:53:10;14.80;99.90
2663;DHT22;49701;48.072;7.800;2023-10-19T09:55:37;14.80;99.90
2663;DHT22;49701;48.072;7.800;2023-10-19T09:58:09;14.80;99.90
2663;DHT22;49701;48.072;7.800;2023-10-19T10:00:37;14.90;99.90
2663;DHT22;49701;48.072;7.800;2023-10-19T10:03:04;14.90;99.90
2663;DHT22;49701;48.072;7.800;2023-10-19T10:10:46;15.30;99.90
2663;DHT22;49701;48.072;7.800;2023-10-19T10:13:54;15.40;99.90
2663;DHT22;49701;48.072;7.800;2023-10-19T10:16:00;15.50;99.90
2663;DHT22;49701;48.072;7.800;2023-10-19T10:18:30;15.60;99.90
2663;DHT22;49701;48.072;7.800;2023-10-19T10:23:39;15.70;99.90
2663;DHT22;49701;48.072;7.800;2023-10-19T10:26:05;15.80;99.90
2663;DHT22;49701;48.072;7.800;2023-10-19T10:28:33;15.90;99.90
2663;DHT22;49701;48.072;7.800;2023-10-19T10:31:20;16.00;99.90
2663;DHT22;49701;48.072;7.800;2023-10-19T10:33:53;16.10;99.90
2663;DHT22;49701;48.072;7.800;2023-10-19T10:36:23;16.30;99.90
2663;DHT22;49701;48.072;7.800;2023-10-19T10:38:50;16.40;99.90
2663;DHT22;49701;48.072;7.800;2023-10-19T10:41:25;16.60;99.90
2663;DHT22;49701;48.072;7.800;2023-10-19T10:43:58;16.80;99.90
2663;DHT22;49701;48.072;7.800;2023-10-19T10:46:26;17.00;99.90
2663;DHT22;49701;48.072;7.800;2023-10-19T10:48:53;17.10;99.90
2663;DHT22;49701;48.072;7.800;2023-10-19T10:51:28;17.30;99.90
2663;DHT22;49701;48.072;7.800;2023-10-19T10:53:57;17.40;99.90
2663;DHT22;49701;48.072;7.800;2023-10-19T10:56:24;17.50;99.90
2663;DHT22;49701;48.072;7.800;2023-10-19T10:58:50;17.60;99.90
2663;DHT22;49701;48.072;7.800;2023-10-19T11:01:28;17.70;99.90
2663;DHT22;49701;48.072;7.800;2023-10-19T11:04:05;17.70;99.90
2663;DHT22;49701;48.072;7.800;2023-10-19T11:06:32;17.80;99.90
2663;DHT22;49701;48.072;7.800;2023-10-19T11:08:57;17.80;99.90
2663;DHT22;49701;48.072;7.800;2023-10-19T11:11:23;17.80;99.90
2663;DHT22;49701;48.072;7.800;2023-10-19T11:13:48;17.90;99.90
2663;DHT22;49701;48.072;7.800;2023-10-19T11:16:22;18.00;99.90
2663;DHT22;49701;48.072;7.800;2023-10-19T11:18:49;18.00;99.90
2663;DHT22;49701;48.072;7.800;2023-10-19T11:21:15;18.10;99.90
2663;DHT22;49701;48.072;7.800;2023-10-19T11:23:46;18.20;99.90
2663;DHT22;49701;48.072;7.800;2023-10-19T11:26:13;18.20;99.90
2663;DHT22;49701;48.072;7.800;2023-10-19T11:28:40;18.40;99.90
2663;DHT22;49701;48.072;7.800;2023-10-19T11:31:11;18.40;99.90
2663;DHT22;49701;48.072;7.800;2023-10-19T11:33:37;18.40;99.90
2663;DHT22;49701;48.072;7.800;2023-10-19T11:36:04;18.30;99.90
2663;DHT22;49701;48.072;7.800;2023-10-19T11:38:30;18.30;99.90
2663;DHT22;49701;48.072;7.800;2023-10-19T11:40:56;18.20;99.90
2663;DHT22;49701;48.072;7.800;2023-10-19T11:43:21;18.20;99.90
2663;DHT22;49701;48.072;7.800;2023-10-19T11:45:47;18.10;99.90
2663;DHT22;49701;48.072;7.800;2023-10-19T11:48:13;18.10;99.90
2663;DHT22;49701;48.072;7.800;2023-10-19T11:50:38;18.00;99.90
2663;DHT22;49701;48.072;7.800;2023-10-19T11:53:04;17.80;99.90
2663;DHT22;49701;48.072;7.800;2023-10-19T11:55:31;17.80;99.90
2663;DHT22;49701;48.072;7.800;2023-10-19T11:57:57;17.70;99.90
2663;DHT22;49701;48.072;7.800;2023-10-19T12:00:25;17.70;99.90
2663;DHT22;49701;48.072;7.800;2023-10-19T12:02:59;17.70;99.90
2663;DHT22;49701;48.072;7.800;2023-10-19T12:05:25;17.70;99.90
2663;DHT22;49701;48.072;7.800;2023-10-19T12:07:51;17.70;99.90
2663;DHT22;49701;48.072;7.800;2023-10-19T12:10:18;17.70;99.90
2663;DHT22;49701;48.072;7.800;2023-10-19T12:12:51;17.70;99.90
2663;DHT22;49701;48.072;7.800;2023-10-19T12:15:18;17.70;99.90
2663;DHT22;49701;48.072;7.800;2023-10-19T12:17:44;17.80;99.90
2663;DHT22;49701;48.072;7.800;2023-10-19T12:20:10;17.70;99.90
2663;DHT22;49701;48.072;7.800;2023-10-19T12:22:39;17.80;99.90
2663;DHT22;49701;48.072;7.800;2023-10-19T12:25:06;17.80;99.90
2663;DHT22;49701;48.072;7.800;2023-10-19T12:27:31;17.80;99.90
2663;DHT22;49701;48.072;7.800;2023-10-19T12:29:57;17.80;99.90
2663;DHT22;49701;48.072;7.800;2023-10-19T12:32:25;17.80;99.90
2663;DHT22;49701;48.072;7.800;2023-10-19T12:34:51;17.80;99.90
2663;DHT22;49701;48.072;7.800;2023-10-19T12:37:23;17.90;99.90
2663;DHT22;49701;48.072;7.800;2023-10-19T12:39:50;17.90;99.90
2663;DHT22;49701;48.072;7.800;2023-10-19T12:42:16;18.00;99.90
2663;DHT22;49701;48.072;7.800;2023-10-19T12:44:43;17.90;99.90
2663;DHT22;49701;48.072;7.800;2023-10-19T12:47:10;17.90;99.90
2663;DHT22;49701;48.072;7.800;2023-10-19T12:49:42;17.90;99.90
2663;DHT22;49701;48.072;7.800;2023-10-19T12:52:08;17.90;99.90
2663;DHT22;49701;48.072;7.800;2023-10-19T12:54:34;17.90;99.90
2663;DHT22;49701;48.072;7.800;2023-10-19T12:57:01;17.80;99.90
2663;DHT22;49701;48.072;7.800;2023-10-19T12:59:29;17.90;99.90
2663;DHT22;49701;48.072;7.800;2023-10-19T13:01:55;17.80;99.90
2663;DHT22;49701;48.072;7.800;2023-10-19T13:04:24;17.80;99.90
2663;DHT22;49701;48.072;7.800;2023-10-19T13:06:53;17.80;99.90
2663;DHT22;49701;48.072;7.800;2023-10-19T13:09:24;17.80;99.90
2663;DHT22;49701;48.072;7.800;2023-10-19T13:12:00;17.90;99.90
2663;DHT22;49701;48.072;7.800;2023-10-19T13:14:26;17.90;99.90
2663;DHT22;49701;48.072;7.800;2023-10-19T13:16:53;17.90;99.90
2663;DHT22;49701;48.072;7.800;2023-10-19T13:19:20;17.90;99.90
2663;DHT22;49701;48.072;7.800;2023-10-19T13:21:50;18.00;99.90
2663;DHT22;49701;48.072;7.800;2023-10-19T13:24:17;18.00;99.90
2663;DHT22;49701;48.072;7.800;2023-10-19T13:26:43;18.00;99.90
2663;DHT22;49701;48.072;7.800;2023-10-19T13:29:13;18.00;99.90
2663;DHT22;49701;48.072;7.800;2023-10-19T13:31:40;18.00;99.90
2663;DHT22;49701;48.072;7.800;2023-10-19T13:34:06;18.10;99.90
2663;DHT22;49701;48.072;7.800;2023-10-19T13:36:36;18.10;99.90
2663;DHT22;49701;48.072;7.800;2023-10-19T13:39:02;18.00;99.90
2663;DHT22;49701;48.072;7.800;2023-10-19T13:41:40;18.00;99.90
2663;DHT22;49701;48.072;7.800;2023-10-19T13:44:08;18.00;99.90
2663;DHT22;49701;48.072;7.800;2023-10-19T13:46:34;18.00;99.90
2663;DHT22;49701;48.072;7.800;2023-10-19T13:48:59;18.00;99.90
2663;DHT22;49701;48.072;7.800;2023-10-19T13:51:28;18.00;99.90
2663;DHT22;49701;48.072;7.800;2023-10-19T13:53:54;18.10;99.90
2663;DHT22;49701;48.072;7.800;2023-10-19T13:56:20;18.20;99.90
2663;DHT22;49701;48.072;7.800;2023-10-19T13:58:45;18.20;99.90
2663;DHT22;49701;48.072;7.800;2023-10-19T14:01:12;18.20;99.90
2663;DHT22;49701;48.072;7.800;2023-10-19T14:03:38;18.20;99.90
2663;DHT22;49701;48.072;7.800;2023-10-19T14:06:04;18.10;99.90
2663;DHT22;49701;48.072;7.800;2023-10-19T14:08:30;18.10;99.90
2663;DHT22;49701;48.072;7.800;2023-10-19T14:11:03;18.20;99.90
2663;DHT22;49701;48.072;7.800;2023-10-19T14:13:29;18.30;99.90
2663;DHT22;49701;48.072;7.800;2023-10-19T14:15:57;18.30;99.90
2663;DHT22;49701;48.072;7.800;2023-10-19T14:18:23;18.30;99.90
2663;DHT22;49701;48.072;7.800;2023-10-19T14:20:49;18.30;99.90
2663;DHT22;49701;48.072;7.800;2023-10-19T14:23:14;18.30;99.90
2663;DHT22;49701;48.072;7.800;2023-10-19T14:25:40;18.30;99.90
2663;DHT22;49701;48.072;7.800;2023-10-19T14:28:07;18.30;99.90
2663;DHT22;49701;48.072;7.800;2023-10-19T14:30:35;18.30;99.90
2663;DHT22;49701;48.072;7.800;2023-10-19T14:33:01;18.20;99.90
2663;DHT22;49701;48.072;7.800;2023-10-19T14:35:27;18.20;99.90
2663;DHT22;49701;48.072;7.800;2023-10-19T14:37:54;18.10;99.90
2663;DHT22;49701;48.072;7.800;2023-10-19T14:40:26;18.00;99.90
2663;DHT22;49701;48.072;7.800;2023-10-19T14:42:54;18.00;99.90
2663;DHT22;49701;48.072;7.800;2023-10-19T14:45:21;17.90;99.90
2663;DHT22;49701;48.072;7.800;2023-10-19T14:47:52;18.00;99.90
2663;DHT22;49701;48.072;7.800;2023-10-19T14:50:18;18.00;99.90
2663;DHT22;49701;48.072;7.800;2023-10-19T14:52:47;17.90;99.90
2663;DHT22;49701;48.072;7.800;2023-10-19T14:55:14;17.90;99.90
2663;DHT22;49701;48.072;7.800;2023-10-19T14:57:46;17.90;99.90
2663;DHT22;49701;48.072;7.800;2023-10-19T15:00:15;17.80;99.90
2663;DHT22;49701;48.072;7.800;2023-10-19T15:02:48;17.80;99.90
2663;DHT22;49701;48.072;7.800;2023-10-19T15:05:14;17.70;99.90
2663;DHT22;49701;48.072;7.800;2023-10-19T15:07:44;17.60;99.90
2663;DHT22;49701;48.072;7.800;2023-10-19T15:10:11;17.60;99.90
2663;DHT22;49701;48.072;7.800;2023-10-19T15:12:40;17.60;99.90
2663;DHT22;49701;48.072;7.800;2023-10-19T15:15:07;17.60;99.90
2663;DHT22;49701;48.072;7.800;2023-10-19T15:17:34;17.60;99.90
2663;DHT22;49701;48.072;7.800;2023-10-19T15:20:00;17.50;99.90
2663;DHT22;49701;48.072;7.800;2023-10-19T15:22:26;17.60;99.90
2663;DHT22;49701;48.072;7.800;2023-10-19T15:24:51;17.60;99.90
2663;DHT22;49701;48.072;7.800;2023-10-19T15:27:20;17.50;99.90
2663;DHT22;49701;48.072;7.800;2023-10-19T15:29:45;17.40;99.90
2663;DHT22;49701;48.072;7.800;2023-10-19T15:32:11;17.40;99.90
2663;DHT22;49701;48.072;7.800;2023-10-19T15:34:37;17.40;99.90
2663;DHT22;49701;48.072;7.800;2023-10-19T15:37:02;17.40;99.90
2663;DHT22;49701;48.072;7.800;2023-10-19T15:39:28;17.30;99.90
2663;DHT22;49701;48.072;7.800;2023-10-19T15:41:54;17.30;99.90
2663;DHT22;49701;48.072;7.800;2023-10-19T15:44:19;17.30;99.90
2663;DHT22;49701;48.072;7.800;2023-10-19T15:46:45;17.30;99.90
2663;DHT22;49701;48.072;7.800;2023-10-19T15:49:20;17.30;99.90
2663;DHT22;49701;48.072;7.800;2023-10-19T15:51:47;17.30;99.90
2663;DHT22;49701;48.072;7.800;2023-10-19T15:54:22;17.20;99.90
2663;DHT22;49701;48.072;7.800;2023-10-19T15:56:47;17.20;99.90
2663;DHT22;49701;48.072;7.800;2023-10-19T15:59:13;17.10;99.90